フォルタレザ の空港の天気 - METARとTAF

フォルタレザ/ピント・マーティンズ国際空港 ( SBFZ / FOR ) - ブラジル セアラー州フォルタレザ
飛行場実況気象(Metar)
観測時間02/17 11:00 BRT (02/17 14:00 UTC)
風向・風速東 5m/s
視程10km以上
天気現象
全天の4割程度の雲 雲底高度 610m
気温30℃
湿度70%
気圧1013hPa
METARSBFZ 171400Z 09010KT 040V110 9999 SCT020 30/24 Q1013
過去の天気等 Google飛行場航空写真 Wunderground天気予報

過去48時間のMETAR

飛行場予報(TAF)
発表時間: 2/17 07:00 BRT (2/17 10:00 UTC)
予報対象時間: 17日9時 BRT ~ 18日9時 BRT
風向・風速東北東 4m/s
視程9000m
全天の4割程度の雲 雲底高度 520m
TAF SBFZ 171000Z 1712/1812 07007KT 9000 SCT017 TX30/1715Z TN25/1807Z RMK PEA